sensor_id;sensor_type;location;lat;lon;timestamp;temperature;humidity
9861;DHT22;4969;52.304;4.968;2022-12-07T00:01:04;6.23;83.53
9861;DHT22;4969;52.304;4.968;2022-12-07T00:03:30;6.19;83.46
9861;DHT22;4969;52.304;4.968;2022-12-07T00:05:57;6.13;83.60
9861;DHT22;4969;52.304;4.968;2022-12-07T00:08:24;6.10;83.78
9861;DHT22;4969;52.304;4.968;2022-12-07T00:10:52;6.05;83.92
9861;DHT22;4969;52.304;4.968;2022-12-07T00:13:19;6.01;83.88
9861;DHT22;4969;52.304;4.968;2022-12-07T00:15:47;5.99;83.96
9861;DHT22;4969;52.304;4.968;2022-12-07T00:18:14;5.98;84.01
9861;DHT22;4969;52.304;4.968;2022-12-07T00:20:40;5.99;83.96
9861;DHT22;4969;52.304;4.968;2022-12-07T00:23:07;6.05;84.00
9861;DHT22;4969;52.304;4.968;2022-12-07T00:25:33;6.53;84.13
9861;DHT22;4969;52.304;4.968;2022-12-07T00:28:11;6.84;83.69
9861;DHT22;4969;52.304;4.968;2022-12-07T00:30:43;7.51;82.81
9861;DHT22;4969;52.304;4.968;2022-12-07T00:33:10;7.31;80.18
9861;DHT22;4969;52.304;4.968;2022-12-07T00:35:36;7.54;81.33
9861;DHT22;4969;52.304;4.968;2022-12-07T00:38:03;8.19;83.07
9861;DHT22;4969;52.304;4.968;2022-12-07T00:40:30;7.82;79.86
9861;DHT22;4969;52.304;4.968;2022-12-07T00:42:56;8.05;79.84
9861;DHT22;4969;52.304;4.968;2022-12-07T00:45:24;7.61;77.36
9861;DHT22;4969;52.304;4.968;2022-12-07T00:47:51;8.20;82.15
9861;DHT22;4969;52.304;4.968;2022-12-07T00:50:17;7.84;77.27
9861;DHT22;4969;52.304;4.968;2022-12-07T00:52:44;8.15;82.60
9861;DHT22;4969;52.304;4.968;2022-12-07T00:55:10;8.10;78.55
9861;DHT22;4969;52.304;4.968;2022-12-07T00:57:37;7.81;78.76
9861;DHT22;4969;52.304;4.968;2022-12-07T01:00:04;7.94;78.00
9861;DHT22;4969;52.304;4.968;2022-12-07T01:02:32;7.67;76.43
9861;DHT22;4969;52.304;4.968;2022-12-07T01:05:03;7.94;80.62
9861;DHT22;4969;52.304;4.968;2022-12-07T01:07:30;8.07;76.74
9861;DHT22;4969;52.304;4.968;2022-12-07T01:09:57;7.57;75.39
9861;DHT22;4969;52.304;4.968;2022-12-07T01:12:24;7.74;79.02
9861;DHT22;4969;52.304;4.968;2022-12-07T01:14:51;7.88;77.72
9861;DHT22;4969;52.304;4.968;2022-12-07T01:17:17;8.01;76.80
9861;DHT22;4969;52.304;4.968;2022-12-07T01:19:45;7.61;76.55
9861;DHT22;4969;52.304;4.968;2022-12-07T01:22:12;7.27;75.97
9861;DHT22;4969;52.304;4.968;2022-12-07T01:24:38;7.06;78.23
9861;DHT22;4969;52.304;4.968;2022-12-07T01:27:05;6.95;78.49
9861;DHT22;4969;52.304;4.968;2022-12-07T01:29:31;7.30;81.05
9861;DHT22;4969;52.304;4.968;2022-12-07T01:31:58;7.31;81.39
9861;DHT22;4969;52.304;4.968;2022-12-07T01:34:25;7.02;78.42
9861;DHT22;4969;52.304;4.968;2022-12-07T01:36:52;7.64;85.21
9861;DHT22;4969;52.304;4.968;2022-12-07T01:39:19;8.19;78.07
9861;DHT22;4969;52.304;4.968;2022-12-07T01:41:46;8.36;79.21
9861;DHT22;4969;52.304;4.968;2022-12-07T01:44:18;8.02;76.09
9861;DHT22;4969;52.304;4.968;2022-12-07T01:46:46;8.27;78.65
9861;DHT22;4969;52.304;4.968;2022-12-07T01:49:20;8.02;76.47
9861;DHT22;4969;52.304;4.968;2022-12-07T01:51:48;7.85;76.04
9861;DHT22;4969;52.304;4.968;2022-12-07T01:54:17;7.81;78.02
9861;DHT22;4969;52.304;4.968;2022-12-07T01:56:54;7.89;76.94
9861;DHT22;4969;52.304;4.968;2022-12-07T01:59:24;7.57;78.83
9861;DHT22;4969;52.304;4.968;2022-12-07T02:01:52;8.06;78.39
9861;DHT22;4969;52.304;4.968;2022-12-07T02:04:19;8.22;78.08
9861;DHT22;4969;52.304;4.968;2022-12-07T02:06:47;8.88;79.58
9861;DHT22;4969;52.304;4.968;2022-12-07T02:09:14;9.13;77.82
9861;DHT22;4969;52.304;4.968;2022-12-07T02:11:42;9.31;78.36
9861;DHT22;4969;52.304;4.968;2022-12-07T02:14:09;9.59;79.88
9861;DHT22;4969;52.304;4.968;2022-12-07T02:16:46;9.69;79.24
9861;DHT22;4969;52.304;4.968;2022-12-07T02:22:29;8.88;77.23
9861;DHT22;4969;52.304;4.968;2022-12-07T02:25:05;8.93;74.21
9861;DHT22;4969;52.304;4.968;2022-12-07T02:27:45;8.16;73.93
9861;DHT22;4969;52.304;4.968;2022-12-07T02:30:15;7.92;76.20
9861;DHT22;4969;52.304;4.968;2022-12-07T02:32:46;7.29;78.94
9861;DHT22;4969;52.304;4.968;2022-12-07T02:35:18;8.58;83.14
9861;DHT22;4969;52.304;4.968;2022-12-07T02:37:53;8.43;75.48
9861;DHT22;4969;52.304;4.968;2022-12-07T02:40:25;8.38;78.08
9861;DHT22;4969;52.304;4.968;2022-12-07T02:42:58;8.16;76.91
9861;DHT22;4969;52.304;4.968;2022-12-07T02:45:29;7.96;76.43
9861;DHT22;4969;52.304;4.968;2022-12-07T02:47:59;7.68;75.85
9861;DHT22;4969;52.304;4.968;2022-12-07T02:50:27;7.65;76.70
9861;DHT22;4969;52.304;4.968;2022-12-07T02:52:53;7.99;77.21
9861;DHT22;4969;52.304;4.968;2022-12-07T02:55:25;8.38;78.00
9861;DHT22;4969;52.304;4.968;2022-12-07T02:58:08;9.38;77.01
9861;DHT22;4969;52.304;4.968;2022-12-07T03:00:46;9.19;77.47
9861;DHT22;4969;52.304;4.968;2022-12-07T03:03:15;9.17;75.50
9861;DHT22;4969;52.304;4.968;2022-12-07T03:06:10;8.68;71.95
9861;DHT22;4969;52.304;4.968;2022-12-07T03:08:46;9.38;78.96
9861;DHT22;4969;52.304;4.968;2022-12-07T03:11:16;9.17;78.26
9861;DHT22;4969;52.304;4.968;2022-12-07T03:13:49;9.43;76.66
9861;DHT22;4969;52.304;4.968;2022-12-07T03:16:21;8.67;73.58
9861;DHT22;4969;52.304;4.968;2022-12-07T03:18:52;8.22;76.06
9861;DHT22;4969;52.304;4.968;2022-12-07T03:21:23;8.57;76.02
9861;DHT22;4969;52.304;4.968;2022-12-07T03:23:53;8.51;77.67
9861;DHT22;4969;52.304;4.968;2022-12-07T03:26:24;9.19;79.63
9861;DHT22;4969;52.304;4.968;2022-12-07T03:28:55;9.12;76.55
9861;DHT22;4969;52.304;4.968;2022-12-07T03:31:29;9.12;76.39
9861;DHT22;4969;52.304;4.968;2022-12-07T03:34:01;9.38;77.44
9861;DHT22;4969;52.304;4.968;2022-12-07T03:36:31;9.37;77.96
9861;DHT22;4969;52.304;4.968;2022-12-07T03:39:03;8.93;74.71
9861;DHT22;4969;52.304;4.968;2022-12-07T03:41:34;9.61;77.26
9861;DHT22;4969;52.304;4.968;2022-12-07T03:44:02;9.47;77.42
9861;DHT22;4969;52.304;4.968;2022-12-07T03:46:36;10.19;77.74
9861;DHT22;4969;52.304;4.968;2022-12-07T03:49:08;9.58;73.99
9861;DHT22;4969;52.304;4.968;2022-12-07T03:51:42;9.31;75.92
9861;DHT22;4969;52.304;4.968;2022-12-07T03:54:14;9.48;75.87
9861;DHT22;4969;52.304;4.968;2022-12-07T03:56:43;9.66;77.04
9861;DHT22;4969;52.304;4.968;2022-12-07T03:59:11;9.31;75.39
9861;DHT22;4969;52.304;4.968;2022-12-07T04:01:41;8.58;71.24
9861;DHT22;4969;52.304;4.968;2022-12-07T04:04:08;8.47;76.16
9861;DHT22;4969;52.304;4.968;2022-12-07T04:06:34;8.03;71.83
9861;DHT22;4969;52.304;4.968;2022-12-07T04:09:01;8.71;79.35
9861;DHT22;4969;52.304;4.968;2022-12-07T04:11:28;8.12;75.56
9861;DHT22;4969;52.304;4.968;2022-12-07T04:13:54;8.89;79.75
9861;DHT22;4969;52.304;4.968;2022-12-07T04:16:40;9.33;77.55
9861;DHT22;4969;52.304;4.968;2022-12-07T04:19:06;9.86;78.65
9861;DHT22;4969;52.304;4.968;2022-12-07T04:21:33;10.38;78.06
9861;DHT22;4969;52.304;4.968;2022-12-07T04:23:59;10.12;76.33
9861;DHT22;4969;52.304;4.968;2022-12-07T04:26:26;9.37;72.07
9861;DHT22;4969;52.304;4.968;2022-12-07T04:28:53;9.55;75.36
9861;DHT22;4969;52.304;4.968;2022-12-07T04:31:19;9.00;73.42
9861;DHT22;4969;52.304;4.968;2022-12-07T04:33:47;9.07;73.79
9861;DHT22;4969;52.304;4.968;2022-12-07T04:36:14;8.81;74.22
9861;DHT22;4969;52.304;4.968;2022-12-07T04:38:40;9.52;79.59
9861;DHT22;4969;52.304;4.968;2022-12-07T04:41:08;9.19;75.25
9861;DHT22;4969;52.304;4.968;2022-12-07T04:43:35;8.72;71.89
9861;DHT22;4969;52.304;4.968;2022-12-07T04:46:02;8.73;72.82
9861;DHT22;4969;52.304;4.968;2022-12-07T04:48:28;8.27;74.05
9861;DHT22;4969;52.304;4.968;2022-12-07T04:50:56;7.91;73.05
9861;DHT22;4969;52.304;4.968;2022-12-07T04:53:23;7.23;72.24
9861;DHT22;4969;52.304;4.968;2022-12-07T04:55:49;6.77;74.69
9861;DHT22;4969;52.304;4.968;2022-12-07T04:58:16;6.71;74.60
9861;DHT22;4969;52.304;4.968;2022-12-07T05:00:42;7.03;75.68
9861;DHT22;4969;52.304;4.968;2022-12-07T05:03:09;7.15;74.50
9861;DHT22;4969;52.304;4.968;2022-12-07T05:05:36;7.44;74.62
9861;DHT22;4969;52.304;4.968;2022-12-07T05:08:04;7.39;75.09
9861;DHT22;4969;52.304;4.968;2022-12-07T05:10:30;7.72;77.47
9861;DHT22;4969;52.304;4.968;2022-12-07T05:12:57;7.65;74.69
9861;DHT22;4969;52.304;4.968;2022-12-07T05:15:23;7.30;76.84
9861;DHT22;4969;52.304;4.968;2022-12-07T05:17:50;7.67;75.68
9861;DHT22;4969;52.304;4.968;2022-12-07T05:20:17;7.22;74.86
9861;DHT22;4969;52.304;4.968;2022-12-07T05:22:44;7.22;74.69
9861;DHT22;4969;52.304;4.968;2022-12-07T05:25:12;7.37;74.00
9861;DHT22;4969;52.304;4.968;2022-12-07T05:27:38;7.23;73.97
9861;DHT22;4969;52.304;4.968;2022-12-07T05:30:06;7.55;73.32
9861;DHT22;4969;52.304;4.968;2022-12-07T05:32:32;7.69;77.14
9861;DHT22;4969;52.304;4.968;2022-12-07T05:34:59;7.65;74.53
9861;DHT22;4969;52.304;4.968;2022-12-07T05:37:26;6.92;73.81
9861;DHT22;4969;52.304;4.968;2022-12-07T05:39:52;6.51;75.27
9861;DHT22;4969;52.304;4.968;2022-12-07T05:42:20;6.47;76.45
9861;DHT22;4969;52.304;4.968;2022-12-07T05:44:47;6.51;76.79
9861;DHT22;4969;52.304;4.968;2022-12-07T05:47:14;6.80;76.38
9861;DHT22;4969;52.304;4.968;2022-12-07T05:49:41;6.58;75.93
9861;DHT22;4969;52.304;4.968;2022-12-07T05:52:08;6.43;75.71
9861;DHT22;4969;52.304;4.968;2022-12-07T05:54:34;6.25;76.24
9861;DHT22;4969;52.304;4.968;2022-12-07T05:57:01;6.15;76.94
9861;DHT22;4969;52.304;4.968;2022-12-07T05:59:29;6.05;77.60
9861;DHT22;4969;52.304;4.968;2022-12-07T06:01:56;6.06;78.35
9861;DHT22;4969;52.304;4.968;2022-12-07T06:04:24;6.13;77.71
9861;DHT22;4969;52.304;4.968;2022-12-07T06:06:51;6.03;77.72
9861;DHT22;4969;52.304;4.968;2022-12-07T06:09:19;6.02;77.69
9861;DHT22;4969;52.304;4.968;2022-12-07T06:11:46;6.08;77.64
9861;DHT22;4969;52.304;4.968;2022-12-07T06:14:31;5.92;78.09
9861;DHT22;4969;52.304;4.968;2022-12-07T06:16:58;5.92;78.31
9861;DHT22;4969;52.304;4.968;2022-12-07T06:19:24;5.91;78.58
9861;DHT22;4969;52.304;4.968;2022-12-07T06:21:51;6.19;80.37
9861;DHT22;4969;52.304;4.968;2022-12-07T06:24:18;6.05;79.29
9861;DHT22;4969;52.304;4.968;2022-12-07T06:26:45;5.97;79.17
9861;DHT22;4969;52.304;4.968;2022-12-07T06:29:12;6.58;77.20
9861;DHT22;4969;52.304;4.968;2022-12-07T06:31:40;6.29;80.05
9861;DHT22;4969;52.304;4.968;2022-12-07T06:34:10;6.50;76.44
9861;DHT22;4969;52.304;4.968;2022-12-07T06:36:37;7.08;82.68
9861;DHT22;4969;52.304;4.968;2022-12-07T06:39:04;6.46;75.58
9861;DHT22;4969;52.304;4.968;2022-12-07T06:41:31;6.34;76.46
9861;DHT22;4969;52.304;4.968;2022-12-07T06:43:58;6.05;76.96
9861;DHT22;4969;52.304;4.968;2022-12-07T06:46:25;6.20;76.61
9861;DHT22;4969;52.304;4.968;2022-12-07T06:48:53;5.94;77.08
9861;DHT22;4969;52.304;4.968;2022-12-07T06:51:20;5.82;77.51
9861;DHT22;4969;52.304;4.968;2022-12-07T06:53:46;5.70;77.94
9861;DHT22;4969;52.304;4.968;2022-12-07T06:56:13;5.59;78.30
9861;DHT22;4969;52.304;4.968;2022-12-07T06:58:40;5.57;78.40
9861;DHT22;4969;52.304;4.968;2022-12-07T07:01:09;5.48;78.59
9861;DHT22;4969;52.304;4.968;2022-12-07T07:03:35;5.50;78.74
9861;DHT22;4969;52.304;4.968;2022-12-07T07:06:04;5.57;78.65
9861;DHT22;4969;52.304;4.968;2022-12-07T07:08:30;5.50;78.73
9861;DHT22;4969;52.304;4.968;2022-12-07T07:10:57;5.43;78.97
9861;DHT22;4969;52.304;4.968;2022-12-07T07:13:23;5.42;78.97
9861;DHT22;4969;52.304;4.968;2022-12-07T07:15:50;5.48;78.67
9861;DHT22;4969;52.304;4.968;2022-12-07T07:18:17;5.43;78.71
9861;DHT22;4969;52.304;4.968;2022-12-07T07:20:43;5.40;79.03
9861;DHT22;4969;52.304;4.968;2022-12-07T07:23:11;5.26;79.33
9861;DHT22;4969;52.304;4.968;2022-12-07T07:25:38;5.39;80.37
9861;DHT22;4969;52.304;4.968;2022-12-07T07:28:05;5.54;79.21
9861;DHT22;4969;52.304;4.968;2022-12-07T07:30:31;5.35;79.38
9861;DHT22;4969;52.304;4.968;2022-12-07T07:32:59;5.26;80.19
9861;DHT22;4969;52.304;4.968;2022-12-07T07:35:25;5.20;80.51
9861;DHT22;4969;52.304;4.968;2022-12-07T07:37:52;5.20;80.81
9861;DHT22;4969;52.304;4.968;2022-12-07T07:40:20;5.25;81.06
9861;DHT22;4969;52.304;4.968;2022-12-07T07:42:47;5.15;81.99
9861;DHT22;4969;52.304;4.968;2022-12-07T07:45:14;5.08;82.44
9861;DHT22;4969;52.304;4.968;2022-12-07T07:47:41;5.02;82.60
9861;DHT22;4969;52.304;4.968;2022-12-07T07:50:08;5.44;82.04
9861;DHT22;4969;52.304;4.968;2022-12-07T07:52:35;5.66;82.02
9861;DHT22;4969;52.304;4.968;2022-12-07T07:55:02;5.53;81.16
9861;DHT22;4969;52.304;4.968;2022-12-07T07:57:30;6.06;84.83
9861;DHT22;4969;52.304;4.968;2022-12-07T07:59:57;6.02;79.38
9861;DHT22;4969;52.304;4.968;2022-12-07T08:02:23;6.03;78.93
9861;DHT22;4969;52.304;4.968;2022-12-07T08:04:50;5.84;79.68
9861;DHT22;4969;52.304;4.968;2022-12-07T08:07:16;5.94;80.29
9861;DHT22;4969;52.304;4.968;2022-12-07T08:09:43;5.82;79.74
9861;DHT22;4969;52.304;4.968;2022-12-07T08:12:09;5.75;80.33
9861;DHT22;4969;52.304;4.968;2022-12-07T08:14:37;5.67;80.49
9861;DHT22;4969;52.304;4.968;2022-12-07T08:17:04;5.67;80.71
9861;DHT22;4969;52.304;4.968;2022-12-07T08:19:30;5.78;80.78
9861;DHT22;4969;52.304;4.968;2022-12-07T08:21:57;5.74;80.76
9861;DHT22;4969;52.304;4.968;2022-12-07T08:24:24;5.88;80.97
9861;DHT22;4969;52.304;4.968;2022-12-07T08:26:51;5.74;81.16
9861;DHT22;4969;52.304;4.968;2022-12-07T08:29:18;5.78;80.75
9861;DHT22;4969;52.304;4.968;2022-12-07T08:31:46;6.15;81.75
9861;DHT22;4969;52.304;4.968;2022-12-07T08:34:13;6.22;79.55
9861;DHT22;4969;52.304;4.968;2022-12-07T08:36:40;6.06;80.51
9861;DHT22;4969;52.304;4.968;2022-12-07T08:39:06;5.85;80.82
9861;DHT22;4969;52.304;4.968;2022-12-07T08:41:33;5.84;81.18
9861;DHT22;4969;52.304;4.968;2022-12-07T08:44:00;5.94;81.15
9861;DHT22;4969;52.304;4.968;2022-12-07T08:46:30;6.03;81.17
9861;DHT22;4969;52.304;4.968;2022-12-07T08:49:04;5.99;81.62
9861;DHT22;4969;52.304;4.968;2022-12-07T08:51:32;5.99;81.81
9861;DHT22;4969;52.304;4.968;2022-12-07T08:54:01;6.01;81.55
9861;DHT22;4969;52.304;4.968;2022-12-07T08:56:30;6.26;81.42
9861;DHT22;4969;52.304;4.968;2022-12-07T08:58:57;7.05;80.71
9861;DHT22;4969;52.304;4.968;2022-12-07T09:01:24;6.89;78.05
9861;DHT22;4969;52.304;4.968;2022-12-07T09:03:50;6.39;79.28
9861;DHT22;4969;52.304;4.968;2022-12-07T09:06:18;6.29;80.37
9861;DHT22;4969;52.304;4.968;2022-12-07T09:08:46;6.29;80.36
9861;DHT22;4969;52.304;4.968;2022-12-07T09:11:13;6.23;80.70
9861;DHT22;4969;52.304;4.968;2022-12-07T09:13:40;6.22;80.78
9861;DHT22;4969;52.304;4.968;2022-12-07T09:16:07;6.18;80.68
9861;DHT22;4969;52.304;4.968;2022-12-07T09:18:33;6.12;81.26
9861;DHT22;4969;52.304;4.968;2022-12-07T09:21:00;6.33;81.34
9861;DHT22;4969;52.304;4.968;2022-12-07T09:23:28;6.30;80.36
9861;DHT22;4969;52.304;4.968;2022-12-07T09:25:54;6.26;80.67
9861;DHT22;4969;52.304;4.968;2022-12-07T09:28:21;6.36;80.33
9861;DHT22;4969;52.304;4.968;2022-12-07T09:30:49;6.30;80.71
9861;DHT22;4969;52.304;4.968;2022-12-07T09:33:15;6.32;80.47
9861;DHT22;4969;52.304;4.968;2022-12-07T09:35:44;6.29;80.90
9861;DHT22;4969;52.304;4.968;2022-12-07T09:38:11;6.28;80.94
9861;DHT22;4969;52.304;4.968;2022-12-07T09:40:39;6.34;80.54
9861;DHT22;4969;52.304;4.968;2022-12-07T09:43:12;6.36;80.25
9861;DHT22;4969;52.304;4.968;2022-12-07T09:45:40;6.40;80.44
9861;DHT22;4969;52.304;4.968;2022-12-07T09:48:16;6.43;80.80
9861;DHT22;4969;52.304;4.968;2022-12-07T09:50:44;6.50;80.76
9861;DHT22;4969;52.304;4.968;2022-12-07T09:53:15;6.56;81.03
9861;DHT22;4969;52.304;4.968;2022-12-07T09:55:47;6.64;80.69
9861;DHT22;4969;52.304;4.968;2022-12-07T09:58:20;6.71;80.08
9861;DHT22;4969;52.304;4.968;2022-12-07T10:00:47;6.73;79.43
9861;DHT22;4969;52.304;4.968;2022-12-07T10:03:13;6.65;79.41
9861;DHT22;4969;52.304;4.968;2022-12-07T10:05:43;6.73;79.81
9861;DHT22;4969;52.304;4.968;2022-12-07T10:08:11;6.80;79.63
9861;DHT22;4969;52.304;4.968;2022-12-07T10:10:38;6.83;80.40
9861;DHT22;4969;52.304;4.968;2022-12-07T10:13:07;6.83;80.34
9861;DHT22;4969;52.304;4.968;2022-12-07T10:15:45;6.84;80.96
9861;DHT22;4969;52.304;4.968;2022-12-07T10:18:21;6.77;80.47
9861;DHT22;4969;52.304;4.968;2022-12-07T10:21:00;6.83;80.55
9861;DHT22;4969;52.304;4.968;2022-12-07T10:23:27;6.77;80.54
9861;DHT22;4969;52.304;4.968;2022-12-07T10:25:54;6.74;80.35
9861;DHT22;4969;52.304;4.968;2022-12-07T10:28:22;6.80;81.01
9861;DHT22;4969;52.304;4.968;2022-12-07T10:30:55;6.78;80.40
9861;DHT22;4969;52.304;4.968;2022-12-07T10:33:29;6.73;80.12
9861;DHT22;4969;52.304;4.968;2022-12-07T10:35:58;6.75;80.24
9861;DHT22;4969;52.304;4.968;2022-12-07T10:38:27;6.77;80.39
9861;DHT22;4969;52.304;4.968;2022-12-07T10:41:06;6.73;80.51
9861;DHT22;4969;52.304;4.968;2022-12-07T10:43:34;6.73;80.18
9861;DHT22;4969;52.304;4.968;2022-12-07T10:46:43;6.74;80.03
9861;DHT22;4969;52.304;4.968;2022-12-07T10:52:47;6.67;79.86
9861;DHT22;4969;52.304;4.968;2022-12-07T10:55:23;6.71;79.95
9861;DHT22;4969;52.304;4.968;2022-12-07T10:58:11;6.84;79.90
9861;DHT22;4969;52.304;4.968;2022-12-07T11:00:43;6.83;79.28
9861;DHT22;4969;52.304;4.968;2022-12-07T11:03:37;6.83;79.54
9861;DHT22;4969;52.304;4.968;2022-12-07T11:06:19;6.84;79.75
9861;DHT22;4969;52.304;4.968;2022-12-07T11:09:03;6.85;79.75
9861;DHT22;4969;52.304;4.968;2022-12-07T11:11:34;6.91;79.72
9861;DHT22;4969;52.304;4.968;2022-12-07T11:14:08;7.02;79.53
9861;DHT22;4969;52.304;4.968;2022-12-07T11:16:50;6.96;79.58
9861;DHT22;4969;52.304;4.968;2022-12-07T11:22:19;7.26;79.23
9861;DHT22;4969;52.304;4.968;2022-12-07T11:24:54;7.40;78.17
9861;DHT22;4969;52.304;4.968;2022-12-07T11:27:29;7.37;78.87
9861;DHT22;4969;52.304;4.968;2022-12-07T11:30:13;7.50;80.17
9861;DHT22;4969;52.304;4.968;2022-12-07T11:32:56;7.65;78.68
9861;DHT22;4969;52.304;4.968;2022-12-07T11:35:34;7.95;78.59
9861;DHT22;4969;52.304;4.968;2022-12-07T11:38:09;7.67;77.90
9861;DHT22;4969;52.304;4.968;2022-12-07T11:40:40;7.62;77.57
9861;DHT22;4969;52.304;4.968;2022-12-07T11:43:15;7.74;79.38
9861;DHT22;4969;52.304;4.968;2022-12-07T11:45:45;7.69;77.49
9861;DHT22;4969;52.304;4.968;2022-12-07T11:48:19;7.82;77.41
9861;DHT22;4969;52.304;4.968;2022-12-07T11:50:48;7.91;76.51
9861;DHT22;4969;52.304;4.968;2022-12-07T11:53:19;8.02;77.16
9861;DHT22;4969;52.304;4.968;2022-12-07T11:55:50;8.12;76.99
9861;DHT22;4969;52.304;4.968;2022-12-07T11:58:26;8.22;77.24
9861;DHT22;4969;52.304;4.968;2022-12-07T12:01:08;8.22;74.90
9861;DHT22;4969;52.304;4.968;2022-12-07T12:03:42;8.61;79.78
9861;DHT22;4969;52.304;4.968;2022-12-07T12:06:10;8.27;72.42
9861;DHT22;4969;52.304;4.968;2022-12-07T12:08:39;8.20;71.07
9861;DHT22;4969;52.304;4.968;2022-12-07T12:11:16;7.81;69.37
9861;DHT22;4969;52.304;4.968;2022-12-07T12:14:03;7.64;70.62
9861;DHT22;4969;52.304;4.968;2022-12-07T12:16:49;7.99;71.44
9861;DHT22;4969;52.304;4.968;2022-12-07T12:19:27;7.84;70.40
9861;DHT22;4969;52.304;4.968;2022-12-07T12:21:59;7.75;70.50
9861;DHT22;4969;52.304;4.968;2022-12-07T12:24:29;7.79;71.35
9861;DHT22;4969;52.304;4.968;2022-12-07T12:27:03;7.85;70.60
9861;DHT22;4969;52.304;4.968;2022-12-07T12:29:33;7.92;70.45
9861;DHT22;4969;52.304;4.968;2022-12-07T12:32:13;8.19;68.52
9861;DHT22;4969;52.304;4.968;2022-12-07T12:34:58;8.05;69.22
9861;DHT22;4969;52.304;4.968;2022-12-07T12:37:45;8.06;68.43
9861;DHT22;4969;52.304;4.968;2022-12-07T12:40:40;8.02;67.96
9861;DHT22;4969;52.304;4.968;2022-12-07T12:43:40;8.37;67.42
9861;DHT22;4969;52.304;4.968;2022-12-07T12:46:36;8.16;68.56
9861;DHT22;4969;52.304;4.968;2022-12-07T12:49:32;8.38;68.46
9861;DHT22;4969;52.304;4.968;2022-12-07T12:55:11;8.10;66.34
9861;DHT22;4969;52.304;4.968;2022-12-07T12:57:38;8.09;66.62
9861;DHT22;4969;52.304;4.968;2022-12-07T13:00:16;8.23;65.96
9861;DHT22;4969;52.304;4.968;2022-12-07T13:02:47;7.94;68.43
9861;DHT22;4969;52.304;4.968;2022-12-07T13:05:19;7.82;69.81
9861;DHT22;4969;52.304;4.968;2022-12-07T13:08:10;7.88;68.12
9861;DHT22;4969;52.304;4.968;2022-12-07T13:10:43;8.02;68.09
9861;DHT22;4969;52.304;4.968;2022-12-07T13:13:33;8.03;67.51
9861;DHT22;4969;52.304;4.968;2022-12-07T13:22:03;8.45;67.45
9861;DHT22;4969;52.304;4.968;2022-12-07T13:24:32;8.22;66.37
9861;DHT22;4969;52.304;4.968;2022-12-07T13:26:59;7.77;67.11
9861;DHT22;4969;52.304;4.968;2022-12-07T13:29:26;7.60;68.43
9861;DHT22;4969;52.304;4.968;2022-12-07T13:31:54;7.48;68.29
9861;DHT22;4969;52.304;4.968;2022-12-07T13:34:29;7.61;68.10
9861;DHT22;4969;52.304;4.968;2022-12-07T13:36:57;7.52;68.41
9861;DHT22;4969;52.304;4.968;2022-12-07T13:39:25;7.48;68.84
9861;DHT22;4969;52.304;4.968;2022-12-07T13:41:55;7.51;68.96
9861;DHT22;4969;52.304;4.968;2022-12-07T13:44:23;7.47;69.78
9861;DHT22;4969;52.304;4.968;2022-12-07T13:47:04;7.47;70.38
9861;DHT22;4969;52.304;4.968;2022-12-07T13:49:37;7.52;70.98
9861;DHT22;4969;52.304;4.968;2022-12-07T13:52:15;7.64;71.48
9861;DHT22;4969;52.304;4.968;2022-12-07T13:54:46;7.72;69.68
9861;DHT22;4969;52.304;4.968;2022-12-07T13:57:15;7.65;70.31
9861;DHT22;4969;52.304;4.968;2022-12-07T13:59:42;7.74;69.75
9861;DHT22;4969;52.304;4.968;2022-12-07T14:02:18;8.03;69.73
9861;DHT22;4969;52.304;4.968;2022-12-07T14:04:46;7.79;69.83
9861;DHT22;4969;52.304;4.968;2022-12-07T14:07:22;7.75;70.82
9861;DHT22;4969;52.304;4.968;2022-12-07T14:09:57;7.84;70.81
9861;DHT22;4969;52.304;4.968;2022-12-07T14:12:26;7.89;70.83
9861;DHT22;4969;52.304;4.968;2022-12-07T14:14:53;8.09;71.00
9861;DHT22;4969;52.304;4.968;2022-12-07T14:17:22;8.09;72.06
9861;DHT22;4969;52.304;4.968;2022-12-07T14:19:51;8.07;71.01
9861;DHT22;4969;52.304;4.968;2022-12-07T14:22:23;8.07;71.23
9861;DHT22;4969;52.304;4.968;2022-12-07T14:24:58;7.91;72.04
9861;DHT22;4969;52.304;4.968;2022-12-07T14:27:31;7.79;72.48
9861;DHT22;4969;52.304;4.968;2022-12-07T14:30:00;7.64;72.53
9861;DHT22;4969;52.304;4.968;2022-12-07T14:32:28;7.72;72.71
9861;DHT22;4969;52.304;4.968;2022-12-07T14:34:58;7.67;72.49
9861;DHT22;4969;52.304;4.968;2022-12-07T14:37:25;7.75;72.54
9861;DHT22;4969;52.304;4.968;2022-12-07T14:39:52;7.88;72.33
9861;DHT22;4969;52.304;4.968;2022-12-07T14:42:19;8.52;72.57
9861;DHT22;4969;52.304;4.968;2022-12-07T14:44:47;8.26;71.37
9861;DHT22;4969;52.304;4.968;2022-12-07T14:47:14;8.06;72.22
9861;DHT22;4969;52.304;4.968;2022-12-07T14:49:41;7.98;73.68
9861;DHT22;4969;52.304;4.968;2022-12-07T14:52:15;8.47;73.10
9861;DHT22;4969;52.304;4.968;2022-12-07T14:54:42;8.16;71.29
9861;DHT22;4969;52.304;4.968;2022-12-07T14:57:09;8.13;72.27
9861;DHT22;4969;52.304;4.968;2022-12-07T14:59:36;7.86;72.08
9861;DHT22;4969;52.304;4.968;2022-12-07T15:02:05;7.77;71.07
9861;DHT22;4969;52.304;4.968;2022-12-07T15:04:32;7.48;72.31
9861;DHT22;4969;52.304;4.968;2022-12-07T15:07:01;7.40;72.64
9861;DHT22;4969;52.304;4.968;2022-12-07T15:09:28;7.50;72.64
9861;DHT22;4969;52.304;4.968;2022-12-07T15:11:55;7.54;73.97
9861;DHT22;4969;52.304;4.968;2022-12-07T15:14:21;7.43;72.20
9861;DHT22;4969;52.304;4.968;2022-12-07T15:16:48;7.23;71.91
9861;DHT22;4969;52.304;4.968;2022-12-07T15:19:18;7.23;72.68
9861;DHT22;4969;52.304;4.968;2022-12-07T15:21:45;7.29;72.21
9861;DHT22;4969;52.304;4.968;2022-12-07T15:24:12;6.99;72.12
9861;DHT22;4969;52.304;4.968;2022-12-07T15:26:40;7.05;72.42
9861;DHT22;4969;52.304;4.968;2022-12-07T15:29:08;7.13;72.27
9861;DHT22;4969;52.304;4.968;2022-12-07T15:31:35;6.99;71.87
9861;DHT22;4969;52.304;4.968;2022-12-07T15:34:02;7.08;72.40
9861;DHT22;4969;52.304;4.968;2022-12-07T15:36:31;7.09;72.66
9861;DHT22;4969;52.304;4.968;2022-12-07T15:38:58;7.37;72.42
9861;DHT22;4969;52.304;4.968;2022-12-07T15:41:25;7.47;71.67
9861;DHT22;4969;52.304;4.968;2022-12-07T15:43:52;7.30;71.74
9861;DHT22;4969;52.304;4.968;2022-12-07T15:46:37;7.24;71.94
9861;DHT22;4969;52.304;4.968;2022-12-07T15:49:04;7.18;71.88
9861;DHT22;4969;52.304;4.968;2022-12-07T15:51:33;7.23;72.59
9861;DHT22;4969;52.304;4.968;2022-12-07T15:54:00;7.26;72.28
9861;DHT22;4969;52.304;4.968;2022-12-07T15:56:27;7.27;71.77
9861;DHT22;4969;52.304;4.968;2022-12-07T15:58:53;7.24;71.71
9861;DHT22;4969;52.304;4.968;2022-12-07T16:01:22;7.19;72.08
9861;DHT22;4969;52.304;4.968;2022-12-07T16:03:48;7.13;72.65
9861;DHT22;4969;52.304;4.968;2022-12-07T16:06:16;7.06;72.63
9861;DHT22;4969;52.304;4.968;2022-12-07T16:08:45;7.02;72.67
9861;DHT22;4969;52.304;4.968;2022-12-07T16:11:12;6.96;72.63
9861;DHT22;4969;52.304;4.968;2022-12-07T16:13:39;6.92;72.90
9861;DHT22;4969;52.304;4.968;2022-12-07T16:16:07;6.92;73.19
9861;DHT22;4969;52.304;4.968;2022-12-07T16:18:34;6.88;73.32
9861;DHT22;4969;52.304;4.968;2022-12-07T16:21:01;6.95;73.35
9861;DHT22;4969;52.304;4.968;2022-12-07T16:23:28;6.92;73.46
9861;DHT22;4969;52.304;4.968;2022-12-07T16:26:03;6.95;73.55
9861;DHT22;4969;52.304;4.968;2022-12-07T16:28:30;6.87;73.61
9861;DHT22;4969;52.304;4.968;2022-12-07T16:31:01;6.89;73.55
9861;DHT22;4969;52.304;4.968;2022-12-07T16:33:27;6.91;73.92
9861;DHT22;4969;52.304;4.968;2022-12-07T16:35:54;6.91;73.87
9861;DHT22;4969;52.304;4.968;2022-12-07T16:38:21;6.88;74.10
9861;DHT22;4969;52.304;4.968;2022-12-07T16:40:47;6.87;74.62
9861;DHT22;4969;52.304;4.968;2022-12-07T16:43:15;9.12;90.53
9861;DHT22;4969;52.304;4.968;2022-12-07T16:45:42;9.24;69.10
9861;DHT22;4969;52.304;4.968;2022-12-07T16:48:08;7.92;70.35
9861;DHT22;4969;52.304;4.968;2022-12-07T16:50:38;7.36;72.72
9861;DHT22;4969;52.304;4.968;2022-12-07T16:53:05;7.29;75.93